sensor_id;sensor_type;location;lat;lon;timestamp;temperature;humidity
25718;DHT22;13574;52.040;5.692;2023-04-24T00:02:23;13.60;99.90
25718;DHT22;13574;52.040;5.692;2023-04-24T00:04:49;13.60;99.90
25718;DHT22;13574;52.040;5.692;2023-04-24T00:07:15;13.50;99.90
25718;DHT22;13574;52.040;5.692;2023-04-24T00:09:42;13.40;99.90
25718;DHT22;13574;52.040;5.692;2023-04-24T00:12:10;13.20;99.90
25718;DHT22;13574;52.040;5.692;2023-04-24T00:14:36;13.30;99.90
25718;DHT22;13574;52.040;5.692;2023-04-24T00:17:01;13.40;99.90
25718;DHT22;13574;52.040;5.692;2023-04-24T00:19:30;13.50;99.90
25718;DHT22;13574;52.040;5.692;2023-04-24T00:21:56;13.60;99.90
25718;DHT22;13574;52.040;5.692;2023-04-24T00:24:22;13.70;99.90
25718;DHT22;13574;52.040;5.692;2023-04-24T00:26:47;13.80;99.90
25718;DHT22;13574;52.040;5.692;2023-04-24T00:29:13;13.80;99.90
25718;DHT22;13574;52.040;5.692;2023-04-24T00:31:39;13.80;99.90
25718;DHT22;13574;52.040;5.692;2023-04-24T00:34:05;13.90;99.90
25718;DHT22;13574;52.040;5.692;2023-04-24T00:36:31;13.90;99.90
25718;DHT22;13574;52.040;5.692;2023-04-24T00:38:57;14.00;99.90
25718;DHT22;13574;52.040;5.692;2023-04-24T00:41:24;13.90;99.90
25718;DHT22;13574;52.040;5.692;2023-04-24T00:43:51;13.80;99.90
25718;DHT22;13574;52.040;5.692;2023-04-24T00:46:17;13.80;99.90
25718;DHT22;13574;52.040;5.692;2023-04-24T00:48:43;13.80;99.90
25718;DHT22;13574;52.040;5.692;2023-04-24T00:51:09;13.80;99.90
25718;DHT22;13574;52.040;5.692;2023-04-24T00:53:35;13.80;99.90
25718;DHT22;13574;52.040;5.692;2023-04-24T00:56:02;13.80;99.90
25718;DHT22;13574;52.040;5.692;2023-04-24T00:58:28;13.50;99.90
25718;DHT22;13574;52.040;5.692;2023-04-24T01:00:54;13.60;99.90
25718;DHT22;13574;52.040;5.692;2023-04-24T01:03:25;13.60;99.90
25718;DHT22;13574;52.040;5.692;2023-04-24T01:05:52;13.60;99.90
25718;DHT22;13574;52.040;5.692;2023-04-24T01:08:20;13.60;99.90
25718;DHT22;13574;52.040;5.692;2023-04-24T01:10:46;13.70;99.90
25718;DHT22;13574;52.040;5.692;2023-04-24T01:13:13;13.70;99.90
25718;DHT22;13574;52.040;5.692;2023-04-24T01:15:39;13.70;99.90
25718;DHT22;13574;52.040;5.692;2023-04-24T01:18:05;13.70;99.90
25718;DHT22;13574;52.040;5.692;2023-04-24T01:20:31;13.70;99.90
25718;DHT22;13574;52.040;5.692;2023-04-24T01:22:57;13.70;99.90
25718;DHT22;13574;52.040;5.692;2023-04-24T01:25:24;13.70;99.90
25718;DHT22;13574;52.040;5.692;2023-04-24T01:27:51;13.80;99.90
25718;DHT22;13574;52.040;5.692;2023-04-24T01:30:18;13.80;99.90
25718;DHT22;13574;52.040;5.692;2023-04-24T01:32:44;13.80;99.90
25718;DHT22;13574;52.040;5.692;2023-04-24T01:35:11;13.80;99.90
25718;DHT22;13574;52.040;5.692;2023-04-24T01:37:36;14.00;99.90
25718;DHT22;13574;52.040;5.692;2023-04-24T01:40:06;13.90;99.90
25718;DHT22;13574;52.040;5.692;2023-04-24T01:42:32;13.90;99.90
25718;DHT22;13574;52.040;5.692;2023-04-24T01:44:59;13.90;99.90
25718;DHT22;13574;52.040;5.692;2023-04-24T01:47:25;13.90;99.90
25718;DHT22;13574;52.040;5.692;2023-04-24T01:49:51;13.90;99.90
25718;DHT22;13574;52.040;5.692;2023-04-24T01:52:17;13.80;99.90
25718;DHT22;13574;52.040;5.692;2023-04-24T01:54:44;13.90;99.90
25718;DHT22;13574;52.040;5.692;2023-04-24T01:57:10;14.10;99.90
25718;DHT22;13574;52.040;5.692;2023-04-24T01:59:35;14.10;99.90
25718;DHT22;13574;52.040;5.692;2023-04-24T02:02:02;13.90;99.90
25718;DHT22;13574;52.040;5.692;2023-04-24T02:04:28;13.90;99.90
25718;DHT22;13574;52.040;5.692;2023-04-24T02:06:53;13.90;99.90
25718;DHT22;13574;52.040;5.692;2023-04-24T02:09:19;14.10;99.90
25718;DHT22;13574;52.040;5.692;2023-04-24T02:11:45;14.10;99.90
25718;DHT22;13574;52.040;5.692;2023-04-24T02:14:11;14.10;99.90
25718;DHT22;13574;52.040;5.692;2023-04-24T02:16:36;13.90;99.90
25718;DHT22;13574;52.040;5.692;2023-04-24T02:19:03;14.00;99.90
25718;DHT22;13574;52.040;5.692;2023-04-24T02:21:28;13.90;99.90
25718;DHT22;13574;52.040;5.692;2023-04-24T02:23:56;13.70;99.90
25718;DHT22;13574;52.040;5.692;2023-04-24T02:26:22;13.90;99.90
25718;DHT22;13574;52.040;5.692;2023-04-24T02:28:47;14.00;99.90
25718;DHT22;13574;52.040;5.692;2023-04-24T02:31:14;14.00;99.90
25718;DHT22;13574;52.040;5.692;2023-04-24T02:33:39;14.00;99.90
25718;DHT22;13574;52.040;5.692;2023-04-24T02:36:05;14.00;99.90
25718;DHT22;13574;52.040;5.692;2023-04-24T02:38:31;14.10;99.90
25718;DHT22;13574;52.040;5.692;2023-04-24T02:40:56;14.10;99.90
25718;DHT22;13574;52.040;5.692;2023-04-24T02:43:22;14.00;99.90
25718;DHT22;13574;52.040;5.692;2023-04-24T02:45:48;14.00;99.90
25718;DHT22;13574;52.040;5.692;2023-04-24T02:48:14;14.10;99.90
25718;DHT22;13574;52.040;5.692;2023-04-24T02:50:40;14.10;99.90
25718;DHT22;13574;52.040;5.692;2023-04-24T02:53:05;14.00;99.90
25718;DHT22;13574;52.040;5.692;2023-04-24T02:55:31;14.10;99.90
25718;DHT22;13574;52.040;5.692;2023-04-24T02:57:57;14.10;99.90
25718;DHT22;13574;52.040;5.692;2023-04-24T03:00:22;14.10;99.90
25718;DHT22;13574;52.040;5.692;2023-04-24T03:02:48;14.20;99.90
25718;DHT22;13574;52.040;5.692;2023-04-24T03:05:15;14.30;99.90
25718;DHT22;13574;52.040;5.692;2023-04-24T03:07:41;14.40;99.90
25718;DHT22;13574;52.040;5.692;2023-04-24T03:10:07;14.40;99.90
25718;DHT22;13574;52.040;5.692;2023-04-24T03:12:32;14.30;99.90
25718;DHT22;13574;52.040;5.692;2023-04-24T03:14:58;14.40;99.90
25718;DHT22;13574;52.040;5.692;2023-04-24T03:17:24;14.30;99.90
25718;DHT22;13574;52.040;5.692;2023-04-24T03:19:50;14.40;99.90
25718;DHT22;13574;52.040;5.692;2023-04-24T03:22:15;14.20;99.90
25718;DHT22;13574;52.040;5.692;2023-04-24T03:24:41;14.20;99.90
25718;DHT22;13574;52.040;5.692;2023-04-24T03:27:06;14.20;99.90
25718;DHT22;13574;52.040;5.692;2023-04-24T03:29:32;14.10;99.90
25718;DHT22;13574;52.040;5.692;2023-04-24T03:31:58;14.10;99.90
25718;DHT22;13574;52.040;5.692;2023-04-24T03:34:23;14.10;99.90
25718;DHT22;13574;52.040;5.692;2023-04-24T03:36:49;14.10;99.90
25718;DHT22;13574;52.040;5.692;2023-04-24T03:39:15;14.00;99.90
25718;DHT22;13574;52.040;5.692;2023-04-24T03:41:41;13.90;99.90
25718;DHT22;13574;52.040;5.692;2023-04-24T03:44:06;13.80;99.90
25718;DHT22;13574;52.040;5.692;2023-04-24T03:46:32;13.90;99.90
25718;DHT22;13574;52.040;5.692;2023-04-24T03:48:57;14.00;99.90
25718;DHT22;13574;52.040;5.692;2023-04-24T03:51:23;14.10;99.90
25718;DHT22;13574;52.040;5.692;2023-04-24T03:53:49;14.00;99.90
25718;DHT22;13574;52.040;5.692;2023-04-24T03:56:15;14.10;99.90
25718;DHT22;13574;52.040;5.692;2023-04-24T03:58:40;14.20;99.90
25718;DHT22;13574;52.040;5.692;2023-04-24T04:01:06;14.20;99.90
25718;DHT22;13574;52.040;5.692;2023-04-24T04:03:32;14.10;99.90
25718;DHT22;13574;52.040;5.692;2023-04-24T04:05:58;14.00;99.90
25718;DHT22;13574;52.040;5.692;2023-04-24T04:08:24;13.80;99.90
25718;DHT22;13574;52.040;5.692;2023-04-24T04:10:50;13.80;99.90
25718;DHT22;13574;52.040;5.692;2023-04-24T04:13:16;13.80;99.90
25718;DHT22;13574;52.040;5.692;2023-04-24T04:15:41;13.70;99.90
25718;DHT22;13574;52.040;5.692;2023-04-24T04:18:07;13.60;99.90
25718;DHT22;13574;52.040;5.692;2023-04-24T04:20:33;13.60;99.90
25718;DHT22;13574;52.040;5.692;2023-04-24T04:22:59;13.40;99.90
25718;DHT22;13574;52.040;5.692;2023-04-24T04:25:25;13.30;99.90
25718;DHT22;13574;52.040;5.692;2023-04-24T04:27:50;13.50;99.90
25718;DHT22;13574;52.040;5.692;2023-04-24T04:30:16;13.40;99.90
25718;DHT22;13574;52.040;5.692;2023-04-24T04:32:43;13.30;99.90
25718;DHT22;13574;52.040;5.692;2023-04-24T04:35:09;13.50;99.90
25718;DHT22;13574;52.040;5.692;2023-04-24T04:37:35;13.30;99.90
25718;DHT22;13574;52.040;5.692;2023-04-24T04:40:02;13.50;99.90
25718;DHT22;13574;52.040;5.692;2023-04-24T04:42:32;13.50;99.90
25718;DHT22;13574;52.040;5.692;2023-04-24T04:44:59;13.60;99.90
25718;DHT22;13574;52.040;5.692;2023-04-24T04:47:25;13.70;99.90
25718;DHT22;13574;52.040;5.692;2023-04-24T04:49:52;13.90;99.90
25718;DHT22;13574;52.040;5.692;2023-04-24T04:52:18;14.10;99.90
25718;DHT22;13574;52.040;5.692;2023-04-24T04:54:44;14.10;99.90
25718;DHT22;13574;52.040;5.692;2023-04-24T04:57:10;14.30;99.90
25718;DHT22;13574;52.040;5.692;2023-04-24T04:59:36;14.30;99.90
25718;DHT22;13574;52.040;5.692;2023-04-24T05:02:02;14.40;99.90
25718;DHT22;13574;52.040;5.692;2023-04-24T05:04:28;14.50;99.90
25718;DHT22;13574;52.040;5.692;2023-04-24T05:06:53;14.40;99.90
25718;DHT22;13574;52.040;5.692;2023-04-24T05:09:19;14.50;99.90
25718;DHT22;13574;52.040;5.692;2023-04-24T05:11:45;14.50;99.90
25718;DHT22;13574;52.040;5.692;2023-04-24T05:14:10;14.50;99.90
25718;DHT22;13574;52.040;5.692;2023-04-24T05:16:38;14.50;99.90
25718;DHT22;13574;52.040;5.692;2023-04-24T05:19:04;14.50;99.90
25718;DHT22;13574;52.040;5.692;2023-04-24T05:21:30;14.40;99.90
25718;DHT22;13574;52.040;5.692;2023-04-24T05:23:56;14.50;99.90
25718;DHT22;13574;52.040;5.692;2023-04-24T05:26:21;14.50;99.90
25718;DHT22;13574;52.040;5.692;2023-04-24T05:28:48;14.40;99.90
25718;DHT22;13574;52.040;5.692;2023-04-24T05:31:13;14.50;99.90
25718;DHT22;13574;52.040;5.692;2023-04-24T05:33:39;14.50;99.90
25718;DHT22;13574;52.040;5.692;2023-04-24T05:36:06;14.50;99.90
25718;DHT22;13574;52.040;5.692;2023-04-24T05:38:32;14.60;99.90
25718;DHT22;13574;52.040;5.692;2023-04-24T05:40:57;14.60;99.90
25718;DHT22;13574;52.040;5.692;2023-04-24T05:43:23;14.60;99.90
25718;DHT22;13574;52.040;5.692;2023-04-24T05:45:49;14.60;99.90
25718;DHT22;13574;52.040;5.692;2023-04-24T05:48:14;14.70;99.90
25718;DHT22;13574;52.040;5.692;2023-04-24T05:50:42;14.80;99.90
25718;DHT22;13574;52.040;5.692;2023-04-24T05:53:07;14.90;99.90
25718;DHT22;13574;52.040;5.692;2023-04-24T05:55:34;14.90;99.90
25718;DHT22;13574;52.040;5.692;2023-04-24T05:58:01;14.90;99.90
25718;DHT22;13574;52.040;5.692;2023-04-24T06:00:26;14.90;99.90
25718;DHT22;13574;52.040;5.692;2023-04-24T06:02:52;14.90;99.90
25718;DHT22;13574;52.040;5.692;2023-04-24T06:05:18;15.00;99.90
25718;DHT22;13574;52.040;5.692;2023-04-24T06:07:44;15.00;99.90
25718;DHT22;13574;52.040;5.692;2023-04-24T06:10:10;15.00;99.90
25718;DHT22;13574;52.040;5.692;2023-04-24T06:12:36;15.00;99.90
25718;DHT22;13574;52.040;5.692;2023-04-24T06:15:03;15.00;99.90
25718;DHT22;13574;52.040;5.692;2023-04-24T06:17:28;15.00;99.90
25718;DHT22;13574;52.040;5.692;2023-04-24T06:19:54;15.00;99.90
25718;DHT22;13574;52.040;5.692;2023-04-24T06:22:19;15.00;99.90
25718;DHT22;13574;52.040;5.692;2023-04-24T06:24:45;15.00;99.90
25718;DHT22;13574;52.040;5.692;2023-04-24T06:27:12;15.00;99.90
25718;DHT22;13574;52.040;5.692;2023-04-24T06:29:38;15.00;99.90
25718;DHT22;13574;52.040;5.692;2023-04-24T06:32:03;15.00;99.90
25718;DHT22;13574;52.040;5.692;2023-04-24T06:34:29;14.50;99.90
25718;DHT22;13574;52.040;5.692;2023-04-24T06:36:56;14.60;99.90
25718;DHT22;13574;52.040;5.692;2023-04-24T06:39:22;14.60;99.90
25718;DHT22;13574;52.040;5.692;2023-04-24T06:41:47;14.60;99.90
25718;DHT22;13574;52.040;5.692;2023-04-24T06:44:13;14.60;99.90
25718;DHT22;13574;52.040;5.692;2023-04-24T06:46:40;14.50;99.90
25718;DHT22;13574;52.040;5.692;2023-04-24T06:49:06;14.60;99.90
25718;DHT22;13574;52.040;5.692;2023-04-24T06:51:32;14.60;99.90
25718;DHT22;13574;52.040;5.692;2023-04-24T06:53:58;14.60;99.90
25718;DHT22;13574;52.040;5.692;2023-04-24T06:56:25;14.50;99.90
25718;DHT22;13574;52.040;5.692;2023-04-24T06:58:51;14.60;99.90
25718;DHT22;13574;52.040;5.692;2023-04-24T07:01:17;14.50;99.90
25718;DHT22;13574;52.040;5.692;2023-04-24T07:03:43;14.50;99.90
25718;DHT22;13574;52.040;5.692;2023-04-24T07:06:09;14.40;99.90
25718;DHT22;13574;52.040;5.692;2023-04-24T07:08:38;14.20;99.90
25718;DHT22;13574;52.040;5.692;2023-04-24T07:11:04;14.00;99.90
25718;DHT22;13574;52.040;5.692;2023-04-24T07:13:30;13.90;99.90
25718;DHT22;13574;52.040;5.692;2023-04-24T07:15:55;13.90;99.90
25718;DHT22;13574;52.040;5.692;2023-04-24T07:18:22;13.70;99.90
25718;DHT22;13574;52.040;5.692;2023-04-24T07:20:48;13.40;99.90
25718;DHT22;13574;52.040;5.692;2023-04-24T07:23:15;13.20;99.90
25718;DHT22;13574;52.040;5.692;2023-04-24T07:25:41;12.90;99.90
25718;DHT22;13574;52.040;5.692;2023-04-24T07:28:07;12.70;99.90
25718;DHT22;13574;52.040;5.692;2023-04-24T07:30:32;12.60;99.90
25718;DHT22;13574;52.040;5.692;2023-04-24T07:32:59;12.60;99.90
25718;DHT22;13574;52.040;5.692;2023-04-24T07:35:26;12.80;99.90
25718;DHT22;13574;52.040;5.692;2023-04-24T07:37:53;12.90;99.90
25718;DHT22;13574;52.040;5.692;2023-04-24T07:40:19;12.80;99.90
25718;DHT22;13574;52.040;5.692;2023-04-24T07:42:45;12.60;99.90
25718;DHT22;13574;52.040;5.692;2023-04-24T07:45:14;12.40;99.90
25718;DHT22;13574;52.040;5.692;2023-04-24T07:47:41;12.10;99.90
25718;DHT22;13574;52.040;5.692;2023-04-24T07:50:09;12.00;99.90
25718;DHT22;13574;52.040;5.692;2023-04-24T07:52:35;11.70;99.90
25718;DHT22;13574;52.040;5.692;2023-04-24T07:55:01;11.90;99.90
25718;DHT22;13574;52.040;5.692;2023-04-24T07:57:27;11.70;99.90
25718;DHT22;13574;52.040;5.692;2023-04-24T07:59:53;11.90;99.90
25718;DHT22;13574;52.040;5.692;2023-04-24T08:02:19;11.80;99.90
25718;DHT22;13574;52.040;5.692;2023-04-24T08:04:47;11.90;99.90
25718;DHT22;13574;52.040;5.692;2023-04-24T08:07:12;11.80;99.90
25718;DHT22;13574;52.040;5.692;2023-04-24T08:09:38;11.80;99.90
25718;DHT22;13574;52.040;5.692;2023-04-24T08:12:04;11.80;99.90
25718;DHT22;13574;52.040;5.692;2023-04-24T08:14:30;11.90;99.90
25718;DHT22;13574;52.040;5.692;2023-04-24T08:16:56;12.10;99.90
25718;DHT22;13574;52.040;5.692;2023-04-24T08:22:45;12.10;99.90
25718;DHT22;13574;52.040;5.692;2023-04-24T08:28:50;12.50;99.90
25718;DHT22;13574;52.040;5.692;2023-04-24T08:34:38;12.30;99.90
25718;DHT22;13574;52.040;5.692;2023-04-24T08:37:04;12.60;99.90
25718;DHT22;13574;52.040;5.692;2023-04-24T08:39:30;12.80;99.90
25718;DHT22;13574;52.040;5.692;2023-04-24T08:41:56;12.80;99.90
25718;DHT22;13574;52.040;5.692;2023-04-24T08:44:21;12.90;99.90
25718;DHT22;13574;52.040;5.692;2023-04-24T08:46:50;12.10;99.90
25718;DHT22;13574;52.040;5.692;2023-04-24T08:49:17;11.80;99.90
25718;DHT22;13574;52.040;5.692;2023-04-24T08:51:44;11.60;99.90
25718;DHT22;13574;52.040;5.692;2023-04-24T08:54:12;11.80;99.90
25718;DHT22;13574;52.040;5.692;2023-04-24T08:56:38;11.70;99.90
25718;DHT22;13574;52.040;5.692;2023-04-24T08:59:06;11.60;99.90
25718;DHT22;13574;52.040;5.692;2023-04-24T09:01:32;11.70;99.90
25718;DHT22;13574;52.040;5.692;2023-04-24T09:04:03;12.00;99.90
25718;DHT22;13574;52.040;5.692;2023-04-24T09:06:30;12.20;99.90
25718;DHT22;13574;52.040;5.692;2023-04-24T09:08:56;12.30;99.90
25718;DHT22;13574;52.040;5.692;2023-04-24T09:11:23;12.20;99.90
25718;DHT22;13574;52.040;5.692;2023-04-24T09:13:50;12.10;99.90
25718;DHT22;13574;52.040;5.692;2023-04-24T09:16:16;12.00;99.90
25718;DHT22;13574;52.040;5.692;2023-04-24T09:18:42;12.10;99.90
25718;DHT22;13574;52.040;5.692;2023-04-24T09:21:09;12.30;99.90
25718;DHT22;13574;52.040;5.692;2023-04-24T09:23:35;12.30;99.90
25718;DHT22;13574;52.040;5.692;2023-04-24T09:26:02;12.40;99.90
25718;DHT22;13574;52.040;5.692;2023-04-24T09:28:32;12.50;99.90
25718;DHT22;13574;52.040;5.692;2023-04-24T09:31:06;12.50;99.90
25718;DHT22;13574;52.040;5.692;2023-04-24T09:33:32;12.40;99.90
25718;DHT22;13574;52.040;5.692;2023-04-24T09:35:58;12.80;99.90
25718;DHT22;13574;52.040;5.692;2023-04-24T09:38:35;12.80;99.90
25718;DHT22;13574;52.040;5.692;2023-04-24T09:41:35;13.10;99.90
25718;DHT22;13574;52.040;5.692;2023-04-24T09:44:14;13.10;99.90
25718;DHT22;13574;52.040;5.692;2023-04-24T09:46:41;13.30;99.90
25718;DHT22;13574;52.040;5.692;2023-04-24T09:49:15;13.40;99.90
25718;DHT22;13574;52.040;5.692;2023-04-24T09:51:42;13.20;99.90
25718;DHT22;13574;52.040;5.692;2023-04-24T09:54:18;13.20;99.90
25718;DHT22;13574;52.040;5.692;2023-04-24T09:56:47;13.30;99.90
25718;DHT22;13574;52.040;5.692;2023-04-24T09:59:14;13.20;99.90
25718;DHT22;13574;52.040;5.692;2023-04-24T10:05:02;13.10;99.90
25718;DHT22;13574;52.040;5.692;2023-04-24T10:10:52;13.10;99.90
25718;DHT22;13574;52.040;5.692;2023-04-24T10:13:18;13.60;99.90
25718;DHT22;13574;52.040;5.692;2023-04-24T10:15:44;13.90;99.90
25718;DHT22;13574;52.040;5.692;2023-04-24T10:18:11;14.30;99.90
25718;DHT22;13574;52.040;5.692;2023-04-24T10:20:39;14.30;99.90
25718;DHT22;13574;52.040;5.692;2023-04-24T10:23:05;14.40;99.90
25718;DHT22;13574;52.040;5.692;2023-04-24T10:25:33;14.20;99.90
25718;DHT22;13574;52.040;5.692;2023-04-24T10:28:00;13.70;99.90
25718;DHT22;13574;52.040;5.692;2023-04-24T10:30:28;13.70;99.90
25718;DHT22;13574;52.040;5.692;2023-04-24T10:32:54;13.20;99.90
25718;DHT22;13574;52.040;5.692;2023-04-24T10:35:20;13.20;99.90
25718;DHT22;13574;52.040;5.692;2023-04-24T10:38:09;13.30;99.90
25718;DHT22;13574;52.040;5.692;2023-04-24T10:40:36;14.00;99.90
25718;DHT22;13574;52.040;5.692;2023-04-24T10:43:03;14.40;99.90
25718;DHT22;13574;52.040;5.692;2023-04-24T10:45:32;14.30;99.90
25718;DHT22;13574;52.040;5.692;2023-04-24T10:48:05;14.70;99.90
25718;DHT22;13574;52.040;5.692;2023-04-24T10:50:53;14.90;99.90
25718;DHT22;13574;52.040;5.692;2023-04-24T10:53:28;15.00;99.90
25718;DHT22;13574;52.040;5.692;2023-04-24T10:56:08;14.50;99.90
25718;DHT22;13574;52.040;5.692;2023-04-24T10:58:50;14.20;99.90
25718;DHT22;13574;52.040;5.692;2023-04-24T11:01:31;13.80;99.90
25718;DHT22;13574;52.040;5.692;2023-04-24T11:04:00;13.90;99.90
25718;DHT22;13574;52.040;5.692;2023-04-24T11:06:36;14.30;99.90
25718;DHT22;13574;52.040;5.692;2023-04-24T11:09:10;14.60;99.90
25718;DHT22;13574;52.040;5.692;2023-04-24T11:11:38;15.00;99.90
25718;DHT22;13574;52.040;5.692;2023-04-24T11:14:10;15.50;99.90
25718;DHT22;13574;52.040;5.692;2023-04-24T11:16:40;15.70;99.90
25718;DHT22;13574;52.040;5.692;2023-04-24T11:21:48;15.70;99.90
25718;DHT22;13574;52.040;5.692;2023-04-24T11:27:15;15.30;99.90
25718;DHT22;13574;52.040;5.692;2023-04-24T11:35:06;15.50;99.90
25718;DHT22;13574;52.040;5.692;2023-04-24T11:37:37;15.60;99.90
25718;DHT22;13574;52.040;5.692;2023-04-24T11:40:04;15.20;99.90
25718;DHT22;13574;52.040;5.692;2023-04-24T11:42:35;14.70;99.90
25718;DHT22;13574;52.040;5.692;2023-04-24T11:45:01;14.70;99.90
25718;DHT22;13574;52.040;5.692;2023-04-24T11:47:31;14.60;99.90
25718;DHT22;13574;52.040;5.692;2023-04-24T11:49:59;14.10;99.90
25718;DHT22;13574;52.040;5.692;2023-04-24T11:52:26;14.10;99.90
25718;DHT22;13574;52.040;5.692;2023-04-24T11:54:52;13.80;99.90
25718;DHT22;13574;52.040;5.692;2023-04-24T11:57:24;13.40;99.90
25718;DHT22;13574;52.040;5.692;2023-04-24T11:59:51;13.40;99.90
25718;DHT22;13574;52.040;5.692;2023-04-24T12:02:21;13.70;99.90
25718;DHT22;13574;52.040;5.692;2023-04-24T12:04:47;14.40;99.90
25718;DHT22;13574;52.040;5.692;2023-04-24T12:07:13;14.80;99.90
25718;DHT22;13574;52.040;5.692;2023-04-24T12:09:44;14.80;99.90
25718;DHT22;13574;52.040;5.692;2023-04-24T12:12:14;14.90;99.90
25718;DHT22;13574;52.040;5.692;2023-04-24T12:14:53;15.00;99.90
25718;DHT22;13574;52.040;5.692;2023-04-24T12:17:31;15.00;99.90
25718;DHT22;13574;52.040;5.692;2023-04-24T12:20:04;15.20;99.90
25718;DHT22;13574;52.040;5.692;2023-04-24T12:22:52;15.70;99.90
25718;DHT22;13574;52.040;5.692;2023-04-24T12:25:23;15.60;99.90
25718;DHT22;13574;52.040;5.692;2023-04-24T12:28:14;15.60;99.90
25718;DHT22;13574;52.040;5.692;2023-04-24T12:30:48;15.60;99.90
25718;DHT22;13574;52.040;5.692;2023-04-24T12:33:18;15.50;99.90
25718;DHT22;13574;52.040;5.692;2023-04-24T12:35:45;15.20;99.90
25718;DHT22;13574;52.040;5.692;2023-04-24T12:38:12;15.40;99.90
25718;DHT22;13574;52.040;5.692;2023-04-24T12:40:39;15.30;99.90
25718;DHT22;13574;52.040;5.692;2023-04-24T12:43:18;14.80;99.90
25718;DHT22;13574;52.040;5.692;2023-04-24T12:45:44;14.60;99.90
25718;DHT22;13574;52.040;5.692;2023-04-24T12:48:13;14.60;99.90
25718;DHT22;13574;52.040;5.692;2023-04-24T12:50:39;14.50;99.90
25718;DHT22;13574;52.040;5.692;2023-04-24T12:53:06;14.60;99.90
25718;DHT22;13574;52.040;5.692;2023-04-24T12:55:32;15.30;99.90
25718;DHT22;13574;52.040;5.692;2023-04-24T12:57:58;15.40;99.90
25718;DHT22;13574;52.040;5.692;2023-04-24T13:00:24;16.00;99.90
25718;DHT22;13574;52.040;5.692;2023-04-24T13:02:50;15.90;99.90
25718;DHT22;13574;52.040;5.692;2023-04-24T13:05:15;15.80;99.90
25718;DHT22;13574;52.040;5.692;2023-04-24T13:07:41;15.50;99.90
25718;DHT22;13574;52.040;5.692;2023-04-24T13:10:07;15.10;99.90
25718;DHT22;13574;52.040;5.692;2023-04-24T13:12:34;14.90;99.90
25718;DHT22;13574;52.040;5.692;2023-04-24T13:15:00;14.80;99.90
25718;DHT22;13574;52.040;5.692;2023-04-24T13:17:25;14.70;99.90
25718;DHT22;13574;52.040;5.692;2023-04-24T13:19:53;14.70;99.90
25718;DHT22;13574;52.040;5.692;2023-04-24T13:22:20;14.50;99.90
25718;DHT22;13574;52.040;5.692;2023-04-24T13:24:45;14.60;99.90
25718;DHT22;13574;52.040;5.692;2023-04-24T13:27:14;14.30;99.90
25718;DHT22;13574;52.040;5.692;2023-04-24T13:29:40;14.00;99.90
25718;DHT22;13574;52.040;5.692;2023-04-24T13:32:06;14.00;99.90
25718;DHT22;13574;52.040;5.692;2023-04-24T13:34:32;13.80;99.90
25718;DHT22;13574;52.040;5.692;2023-04-24T13:36:58;13.90;99.90
25718;DHT22;13574;52.040;5.692;2023-04-24T13:39:24;13.70;99.90
25718;DHT22;13574;52.040;5.692;2023-04-24T13:41:50;13.70;99.90
25718;DHT22;13574;52.040;5.692;2023-04-24T13:44:17;13.70;99.90
25718;DHT22;13574;52.040;5.692;2023-04-24T13:46:44;13.60;99.90
25718;DHT22;13574;52.040;5.692;2023-04-24T13:49:14;13.60;99.90
25718;DHT22;13574;52.040;5.692;2023-04-24T13:51:40;13.80;99.90
25718;DHT22;13574;52.040;5.692;2023-04-24T13:54:06;14.40;99.90
25718;DHT22;13574;52.040;5.692;2023-04-24T13:56:32;14.60;99.90
25718;DHT22;13574;52.040;5.692;2023-04-24T13:58:58;14.70;99.90
25718;DHT22;13574;52.040;5.692;2023-04-24T14:01:23;14.70;99.90
25718;DHT22;13574;52.040;5.692;2023-04-24T14:03:53;14.90;99.90
25718;DHT22;13574;52.040;5.692;2023-04-24T14:06:19;15.10;99.90
25718;DHT22;13574;52.040;5.692;2023-04-24T14:08:46;14.70;99.90
25718;DHT22;13574;52.040;5.692;2023-04-24T14:11:12;14.40;99.90
25718;DHT22;13574;52.040;5.692;2023-04-24T14:13:38;14.40;99.90
25718;DHT22;13574;52.040;5.692;2023-04-24T14:16:05;14.10;99.90
25718;DHT22;13574;52.040;5.692;2023-04-24T14:18:31;14.10;99.90
25718;DHT22;13574;52.040;5.692;2023-04-24T14:20:56;14.00;99.90
25718;DHT22;13574;52.040;5.692;2023-04-24T14:23:22;14.00;99.90
25718;DHT22;13574;52.040;5.692;2023-04-24T14:25:48;14.30;99.90
25718;DHT22;13574;52.040;5.692;2023-04-24T14:28:19;14.20;99.90
25718;DHT22;13574;52.040;5.692;2023-04-24T14:30:46;14.30;99.90
25718;DHT22;13574;52.040;5.692;2023-04-24T14:33:12;14.30;99.90
25718;DHT22;13574;52.040;5.692;2023-04-24T14:35:39;14.10;99.90
25718;DHT22;13574;52.040;5.692;2023-04-24T14:38:05;14.00;99.90
25718;DHT22;13574;52.040;5.692;2023-04-24T14:40:31;14.20;99.90
25718;DHT22;13574;52.040;5.692;2023-04-24T14:42:58;14.50;99.90
25718;DHT22;13574;52.040;5.692;2023-04-24T14:45:24;14.30;99.70
25718;DHT22;13574;52.040;5.692;2023-04-24T14:47:50;14.20;99.90
25718;DHT22;13574;52.040;5.692;2023-04-24T14:50:15;14.00;99.90
25718;DHT22;13574;52.040;5.692;2023-04-24T14:52:41;13.90;99.90
25718;DHT22;13574;52.040;5.692;2023-04-24T14:55:07;14.20;99.90
25718;DHT22;13574;52.040;5.692;2023-04-24T14:57:34;14.60;99.90
25718;DHT22;13574;52.040;5.692;2023-04-24T15:00:00;14.50;99.90
25718;DHT22;13574;52.040;5.692;2023-04-24T15:02:25;14.70;99.90
25718;DHT22;13574;52.040;5.692;2023-04-24T15:04:51;14.50;99.90
25718;DHT22;13574;52.040;5.692;2023-04-24T15:07:16;14.10;99.90
25718;DHT22;13574;52.040;5.692;2023-04-24T15:09:42;14.10;99.90
25718;DHT22;13574;52.040;5.692;2023-04-24T15:12:08;14.00;99.90
25718;DHT22;13574;52.040;5.692;2023-04-24T15:14:35;14.10;99.90
25718;DHT22;13574;52.040;5.692;2023-04-24T15:17:00;14.00;99.90
25718;DHT22;13574;52.040;5.692;2023-04-24T15:19:26;14.40;99.90
25718;DHT22;13574;52.040;5.692;2023-04-24T15:21:52;14.50;99.90
25718;DHT22;13574;52.040;5.692;2023-04-24T15:24:17;14.30;99.90
25718;DHT22;13574;52.040;5.692;2023-04-24T15:26:43;14.20;99.70
25718;DHT22;13574;52.040;5.692;2023-04-24T15:29:08;14.10;99.90
25718;DHT22;13574;52.040;5.692;2023-04-24T15:31:34;14.10;99.90
25718;DHT22;13574;52.040;5.692;2023-04-24T15:34:00;14.00;99.90
25718;DHT22;13574;52.040;5.692;2023-04-24T15:36:27;14.10;99.90
25718;DHT22;13574;52.040;5.692;2023-04-24T15:38:53;14.30;99.90
25718;DHT22;13574;52.040;5.692;2023-04-24T15:41:18;14.10;99.90
25718;DHT22;13574;52.040;5.692;2023-04-24T15:43:44;14.20;99.90
25718;DHT22;13574;52.040;5.692;2023-04-24T15:46:10;13.50;99.90
25718;DHT22;13574;52.040;5.692;2023-04-24T15:48:36;13.50;99.90
25718;DHT22;13574;52.040;5.692;2023-04-24T15:51:01;13.70;99.90
25718;DHT22;13574;52.040;5.692;2023-04-24T15:53:27;13.40;99.90
25718;DHT22;13574;52.040;5.692;2023-04-24T15:55:54;13.40;99.90
25718;DHT22;13574;52.040;5.692;2023-04-24T15:58:22;13.40;99.90